createdAt,value
2019-04-01T00:00:18.622Z,100936.17
2019-04-01T00:02:50.099Z,100929.17
2019-04-01T00:05:21.433Z,100933.84
2019-04-01T00:07:52.763Z,100933.84
2019-04-01T00:10:24.097Z,100928.37
2019-04-01T00:12:55.412Z,100929.78
2019-04-01T00:15:26.810Z,100917.17
2019-04-01T00:17:58.278Z,100917.17
2019-04-01T00:20:29.639Z,100919.70
2019-04-01T00:23:01.116Z,100922.26
2019-04-01T00:25:32.505Z,100925.11
2019-04-01T00:28:03.834Z,100910.54
2019-04-01T00:30:35.146Z,100907.03
2019-04-01T00:33:07.524Z,100907.03
2019-04-01T00:35:38.833Z,100914.97
2019-04-01T00:38:16.156Z,100918.23
2019-04-01T00:40:47.463Z,100912.27
2019-04-01T00:43:29.741Z,100912.27
2019-04-01T00:46:01.066Z,100908.44
2019-04-01T00:48:32.393Z,100908.17
2019-04-01T00:51:03.715Z,100908.17
2019-04-01T00:53:34.938Z,100901.20
2019-04-01T00:56:07.264Z,100905.67
2019-04-01T00:58:38.628Z,100905.41
2019-04-01T01:01:11.200Z,100894.44
2019-04-01T01:03:42.507Z,100889.41
2019-04-01T01:06:13.808Z,100889.41
2019-04-01T01:08:45.213Z,100890.39
2019-04-01T01:11:16.469Z,100890.86
2019-04-01T01:13:48.779Z,100890.86
2019-04-01T01:16:19.992Z,100886.45
2019-04-01T01:18:51.305Z,100881.39
2019-04-01T01:21:22.621Z,100879.09
2019-04-01T01:23:53.947Z,100879.62
2019-04-01T01:26:25.304Z,100875.71
2019-04-01T01:28:56.612Z,100874.50
2019-04-01T01:31:27.885Z,100870.94
2019-04-01T01:33:59.102Z,100867.52
2019-04-01T01:36:30.507Z,100867.52
2019-04-01T01:39:01.703Z,100870.16
2019-04-01T01:41:34.345Z,100869.39
2019-04-01T01:44:05.683Z,100878.08
2019-04-01T01:46:36.941Z,100873.88
2019-04-01T01:49:08.263Z,100875.20
2019-04-01T01:51:39.563Z,100877.37
2019-04-01T01:54:10.804Z,100891.95
2019-04-01T01:56:43.641Z,100876.28
2019-04-01T01:59:18.189Z,100876.28
2019-04-01T02:01:49.532Z,100871.34
2019-04-01T02:04:23.990Z,100870.55
2019-04-01T02:06:56.376Z,100868.02
2019-04-01T02:09:27.680Z,100867.91
2019-04-01T02:11:58.918Z,100866.69
2019-04-01T02:14:31.084Z,100875.52
2019-04-01T02:17:04.001Z,100874.20
2019-04-01T02:19:35.354Z,100874.61
2019-04-01T02:22:06.798Z,100878.61
2019-04-01T02:24:38.473Z,100880.56
2019-04-01T02:27:10.062Z,100881.98
2019-04-01T02:29:41.602Z,100881.52
2019-04-01T02:32:14.547Z,100883.46
2019-04-01T02:34:45.884Z,100882.59
2019-04-01T02:37:17.236Z,100888.80
2019-04-01T02:39:51.662Z,100885.29
2019-04-01T02:42:26.549Z,100892.80
2019-04-01T02:44:57.899Z,100888.44
2019-04-01T02:47:29.277Z,100896.71
2019-04-01T02:50:02.680Z,100899.95
2019-04-01T02:52:33.883Z,100902.22
2019-04-01T02:55:07.442Z,100903.23
2019-04-01T02:57:38.877Z,100904.96
2019-04-01T03:00:10.204Z,100906.73
2019-04-01T03:02:41.426Z,100905.06
2019-04-01T03:05:12.703Z,100912.73
2019-04-01T03:07:44.042Z,100899.78
2019-04-01T03:10:15.372Z,100905.61
2019-04-01T03:12:46.559Z,100908.70
2019-04-01T03:15:17.808Z,100906.02
2019-04-01T03:17:49.170Z,100905.25
2019-04-01T03:20:20.321Z,100908.88
2019-04-01T03:22:51.694Z,100913.06
2019-04-01T03:25:22.918Z,100908.24
2019-04-01T03:27:55.109Z,100908.83
2019-04-01T03:30:26.286Z,100915.52
2019-04-01T03:32:57.651Z,100916.80
2019-04-01T03:35:28.822Z,100923.42
2019-04-01T03:38:00.135Z,100921.70
2019-04-01T03:40:31.334Z,100928.30
2019-04-01T03:43:02.627Z,100928.25
2019-04-01T03:45:33.922Z,100926.47
2019-04-01T03:48:05.294Z,100929.03
2019-04-01T03:50:36.654Z,100928.33
2019-04-01T03:53:08.019Z,100929.08
2019-04-01T03:55:39.369Z,100921.28
2019-04-01T03:58:10.662Z,100923.43
2019-04-01T04:00:42.128Z,100927.91
2019-04-01T04:03:13.463Z,100927.59
2019-04-01T04:05:44.824Z,100921.83
2019-04-01T04:08:16.162Z,100920.60
2019-04-01T04:10:47.493Z,100926.81
2019-04-01T04:13:18.807Z,100926.48
2019-04-01T04:15:50.161Z,100931.70
2019-04-01T04:18:21.498Z,100929.95
2019-04-01T04:20:52.875Z,100933.64
2019-04-01T04:23:25.196Z,100935.73
2019-04-01T04:25:56.484Z,100934.07
2019-04-01T04:28:27.887Z,100937.34
2019-04-01T04:31:00.288Z,100938.86
2019-04-01T04:33:31.652Z,100936.96
2019-04-01T04:36:02.968Z,100932.13
2019-04-01T04:38:34.193Z,100935.80
2019-04-01T04:41:05.520Z,100931.87
2019-04-01T04:43:36.855Z,100931.27
2019-04-01T04:46:08.205Z,100926.89
2019-04-01T04:48:40.576Z,100930.62
2019-04-01T04:51:11.928Z,100925.92
2019-04-01T04:53:44.324Z,100923.16
2019-04-01T04:56:15.675Z,100919.65
2019-04-01T04:58:47.112Z,100920.53
2019-04-01T05:01:18.640Z,100917.80
2019-04-01T05:03:49.825Z,100914.19
2019-04-01T05:06:21.135Z,100918.14
2019-04-01T05:08:52.477Z,100920.50
2019-04-01T05:11:23.825Z,100920.19
2019-04-01T05:13:55.149Z,100929.13
2019-04-01T05:16:26.460Z,100927.41
2019-04-01T05:18:58.825Z,100936.14
2019-04-01T05:21:30.260Z,100928.39
2019-04-01T05:24:01.812Z,100927.17
2019-04-01T05:26:33.596Z,100929.45
2019-04-01T05:29:04.938Z,100933.12
2019-04-01T05:31:36.218Z,100933.05
2019-04-01T05:34:07.536Z,100931.84
2019-04-01T05:36:38.933Z,100932.05
2019-04-01T05:39:10.379Z,100919.84
2019-04-01T05:41:41.799Z,100923.42
2019-04-01T05:44:13.356Z,100920.68
2019-04-01T05:46:44.711Z,100919.98
2019-04-01T05:49:16.602Z,100917.73
2019-04-01T05:51:47.971Z,100914.99
2019-04-01T05:54:19.299Z,100920.88
2019-04-01T05:56:50.592Z,100912.56
2019-04-01T05:59:21.856Z,100913.03
2019-04-01T06:01:53.155Z,100915.20
2019-04-01T06:04:24.478Z,100912.78
2019-04-01T06:06:56.517Z,100904.39
2019-04-01T06:09:27.894Z,100907.09
2019-04-01T06:11:59.211Z,100914.55
2019-04-01T06:14:30.599Z,100915.37
2019-04-01T06:17:01.987Z,100913.30
2019-04-01T06:19:34.304Z,100906.41
2019-04-01T06:22:05.678Z,100911.73
2019-04-01T06:24:39.003Z,100905.83
2019-04-01T06:27:10.786Z,100902.28
2019-04-01T06:29:42.384Z,100902.71
2019-04-01T06:32:13.751Z,100910.31
2019-04-01T06:34:52.677Z,100905.70
2019-04-01T06:37:18.249Z,100910.36
2019-04-01T06:39:49.737Z,100904.17
2019-04-01T06:42:21.122Z,100906.21
2019-04-01T06:44:52.563Z,100910.59
2019-04-01T06:47:23.904Z,100904.05
2019-04-01T06:49:55.236Z,100906.89
2019-04-01T06:52:26.730Z,100906.02
2019-04-01T06:54:58.055Z,100906.28
2019-04-01T06:57:30.947Z,100911.33
2019-04-01T07:00:03.892Z,100902.45
2019-04-01T07:02:35.298Z,100906.75
2019-04-01T07:05:07.765Z,100905.40
2019-04-01T07:07:39.316Z,100902.31
2019-04-01T07:10:10.905Z,100904.41
2019-04-01T07:12:42.245Z,100904.28
2019-04-01T07:15:13.572Z,100898.09
2019-04-01T07:17:46.100Z,100907.48
2019-04-01T07:20:20.226Z,100912.38
2019-04-01T07:22:51.506Z,100905.40
2019-04-01T07:25:22.852Z,100906.89
2019-04-01T07:27:54.209Z,100915.59
2019-04-01T07:30:25.598Z,100905.73
2019-04-01T07:32:56.999Z,100902.16
2019-04-01T07:35:30.324Z,100902.93
2019-04-01T07:38:01.707Z,100893.93
2019-04-01T07:40:33.074Z,100888.44
2019-04-01T07:43:05.297Z,100892.56
2019-04-01T07:45:40.353Z,100883.30
2019-04-01T07:48:14.976Z,100880.70
2019-04-01T07:51:02.709Z,100879.98
2019-04-01T07:53:33.935Z,100872.11
2019-04-01T07:56:05.327Z,100876.01
2019-04-01T07:58:37.742Z,100876.95
2019-04-01T08:01:09.125Z,100880.34
2019-04-01T08:03:42.083Z,100872.03
2019-04-01T08:06:13.671Z,100872.62
2019-04-01T08:08:46.394Z,100865.00
2019-04-01T08:11:18.048Z,100859.88
2019-04-01T08:13:51.395Z,100868.02
2019-04-01T08:16:22.790Z,100858.95
2019-04-01T08:18:58.987Z,100862.05
2019-04-01T08:21:31.116Z,100859.81
2019-04-01T08:24:07.557Z,100861.81
2019-04-01T08:26:39.066Z,100859.12
2019-04-01T08:29:29.500Z,100849.12
2019-04-01T08:31:49.772Z,100847.92
2019-04-01T08:34:21.194Z,100848.02
2019-04-01T08:36:52.523Z,100840.14
2019-04-01T08:39:23.887Z,100836.98
2019-04-01T08:41:55.491Z,100833.64
2019-04-01T08:44:27.254Z,100835.22
2019-04-01T08:46:58.650Z,100833.50
2019-04-01T08:49:30.283Z,100828.66
2019-04-01T08:52:01.655Z,100826.70
2019-04-01T08:54:33.052Z,100832.22
2019-04-01T08:57:21.090Z,100824.98
2019-04-01T08:59:56.105Z,100820.92
2019-04-01T09:02:26.996Z,100823.52
2019-04-01T09:04:58.727Z,100823.73
2019-04-01T09:07:34.758Z,100818.21
2019-04-01T09:10:06.760Z,100820.67
2019-04-01T09:12:38.126Z,100823.17
2019-04-01T09:15:09.472Z,100813.69
2019-04-01T09:17:40.908Z,100812.14
2019-04-01T09:20:12.365Z,100812.92
2019-04-01T09:22:43.773Z,100799.53
2019-04-01T09:25:16.126Z,100794.39
2019-04-01T09:27:48.680Z,100791.82
2019-04-01T09:30:20.010Z,100800.64
2019-04-01T09:32:52.600Z,100791.02
2019-04-01T09:35:24.270Z,100797.62
2019-04-01T09:37:55.643Z,100790.69
2019-04-01T09:40:27.120Z,100782.87
2019-04-01T09:43:04.193Z,100786.38
2019-04-01T09:45:36.652Z,100784.38
2019-04-01T09:48:08.005Z,100774.47
2019-04-01T09:50:39.344Z,100774.95
2019-04-01T09:53:10.731Z,100771.25
2019-04-01T09:55:42.159Z,100764.47
2019-04-01T09:58:14.722Z,100756.39
2019-04-01T10:00:53.177Z,100758.36
2019-04-01T10:03:24.841Z,100760.23
2019-04-01T10:05:56.730Z,100761.47
2019-04-01T10:08:42.451Z,100765.27
2019-04-01T10:11:18.690Z,100760.45
2019-04-01T10:13:52.546Z,100761.09
2019-04-01T10:16:26.621Z,100758.05
2019-04-01T10:18:58.235Z,100763.30
2019-04-01T10:21:31.701Z,100755.55
2019-04-01T10:24:03.500Z,100758.13
2019-04-01T10:26:34.920Z,100757.39
2019-04-01T10:29:06.385Z,100748.03
2019-04-01T10:31:37.796Z,100747.05
2019-04-01T10:34:09.254Z,100734.76
2019-04-01T10:36:40.903Z,100729.20
2019-04-01T10:39:12.815Z,100728.69
2019-04-01T10:41:44.179Z,100724.26
2019-04-01T10:44:15.630Z,100729.55
2019-04-01T10:46:49.768Z,100715.61
2019-04-01T10:49:21.175Z,100719.80
2019-04-01T10:51:54.814Z,100727.56
2019-04-01T10:54:26.246Z,100718.87
2019-04-01T10:56:58.964Z,100716.61
2019-04-01T10:59:30.603Z,100720.77
2019-04-01T11:02:02.105Z,100716.95
2019-04-01T11:04:38.228Z,100710.44
2019-04-01T11:07:12.804Z,100708.39
2019-04-01T11:09:45.366Z,100711.64
2019-04-01T11:12:16.825Z,100705.34
2019-04-01T11:14:48.272Z,100712.86
2019-04-01T11:17:19.980Z,100717.16
2019-04-01T11:19:51.626Z,100717.05
2019-04-01T11:22:26.055Z,100717.72
2019-04-01T11:24:58.720Z,100714.84
2019-04-01T11:27:33.766Z,100708.61
2019-04-01T11:30:07.801Z,100704.78
2019-04-01T11:32:41.659Z,100704.02
2019-04-01T11:35:13.367Z,100704.14
2019-04-01T11:37:46.040Z,100705.42
2019-04-01T11:40:18.224Z,100702.47
2019-04-01T11:42:49.811Z,100706.83
2019-04-01T11:45:22.497Z,100683.45
2019-04-01T11:47:54.182Z,100680.77
2019-04-01T11:50:25.704Z,100687.51
2019-04-01T11:52:57.143Z,100687.19
2019-04-01T11:55:28.590Z,100697.56
2019-04-01T11:57:59.997Z,100692.03
2019-04-01T12:00:31.418Z,100690.00
2019-04-01T12:03:03.010Z,100685.30
2019-04-01T12:05:36.405Z,100682.76
2019-04-01T12:08:08.278Z,100677.70
2019-04-01T12:10:40.215Z,100682.46
2019-04-01T12:13:12.747Z,100675.08
2019-04-01T12:15:44.785Z,100682.47
2019-04-01T12:18:19.448Z,100683.96
2019-04-01T12:20:51.860Z,100683.38
2019-04-01T12:23:25.309Z,100678.30
2019-04-01T12:25:56.736Z,100674.75
2019-04-01T12:28:29.132Z,100677.72
2019-04-01T12:31:00.576Z,100665.66
2019-04-01T12:33:32.934Z,100667.66
2019-04-01T12:36:05.602Z,100667.63
2019-04-01T12:38:38.511Z,100680.02
2019-04-01T12:41:10.279Z,100675.28
2019-04-01T12:43:41.869Z,100678.80
2019-04-01T12:46:13.420Z,100675.75
2019-04-01T12:48:44.878Z,100673.98
2019-04-01T12:51:16.218Z,100667.02
2019-04-01T12:53:47.572Z,100667.38
2019-04-01T12:56:19.001Z,100669.80
2019-04-01T12:58:50.325Z,100667.60
2019-04-01T13:01:21.706Z,100672.31
2019-04-01T13:03:53.047Z,100657.96
2019-04-01T13:06:24.441Z,100663.20
2019-04-01T13:08:56.767Z,100661.48
2019-04-01T13:11:30.384Z,100662.58
2019-04-01T13:14:01.825Z,100659.48
2019-04-01T13:16:35.544Z,100666.03
2019-04-01T13:19:07.070Z,100660.19
2019-04-01T13:21:39.955Z,100662.08
2019-04-01T13:24:11.365Z,100662.58
2019-04-01T13:26:42.793Z,100670.44
2019-04-01T13:29:14.275Z,100666.89
2019-04-01T13:31:45.778Z,100658.92
2019-04-01T13:34:20.014Z,100658.77
2019-04-01T13:36:50.360Z,100663.73
2019-04-01T13:39:21.798Z,100669.83
2019-04-01T13:41:56.086Z,100660.84
2019-04-01T13:44:36.690Z,100661.61
2019-04-01T13:47:08.369Z,100658.32
2019-04-01T13:49:39.691Z,100665.56
2019-04-01T13:52:11.036Z,100661.61
2019-04-01T13:54:42.410Z,100660.27
2019-04-01T13:57:14.790Z,100666.83
2019-04-01T13:59:49.509Z,100664.88
2019-04-01T14:02:20.932Z,100666.07
2019-04-01T14:04:53.341Z,100674.36
2019-04-01T14:07:24.851Z,100669.84
2019-04-01T14:09:56.259Z,100669.84
2019-04-01T14:12:28.927Z,100667.77
2019-04-01T14:15:01.997Z,100679.33
2019-04-01T14:17:33.776Z,100677.13
2019-04-01T14:20:05.438Z,100672.91
2019-04-01T14:22:36.853Z,100670.34
2019-04-01T14:25:08.260Z,100661.94
2019-04-01T14:27:39.763Z,100671.66
2019-04-01T14:30:12.811Z,100671.95
2019-04-01T14:32:44.307Z,100683.66
2019-04-01T14:35:16.726Z,100674.22
2019-04-01T14:37:51.367Z,100675.16
2019-04-01T14:40:23.841Z,100682.13
2019-04-01T14:42:57.433Z,100675.25
2019-04-01T14:45:29.003Z,100683.83
2019-04-01T14:48:01.894Z,100700.67
2019-04-01T14:50:36.326Z,100686.44
2019-04-01T14:53:07.850Z,100690.70
2019-04-01T14:55:39.720Z,100690.70
2019-04-01T14:58:11.288Z,100697.36
2019-04-01T15:00:45.199Z,100703.50
2019-04-01T15:03:16.713Z,100693.48
2019-04-01T15:05:49.127Z,100706.97
2019-04-01T15:08:24.400Z,100705.38
2019-04-01T15:10:57.464Z,100716.48
2019-04-01T15:13:28.861Z,100713.83
2019-04-01T15:16:01.290Z,100714.97
2019-04-01T15:18:34.466Z,100721.87
2019-04-01T15:21:05.902Z,100722.48
2019-04-01T15:23:37.232Z,100741.72
2019-04-01T15:26:08.585Z,100728.80
2019-04-01T15:28:41.656Z,100732.53
2019-04-01T15:31:13.181Z,100732.33
2019-04-01T15:33:45.872Z,100751.53
2019-04-01T15:36:17.615Z,100749.48
2019-04-01T15:38:49.057Z,100751.18
2019-04-01T15:41:20.446Z,100752.40
2019-04-01T15:43:52.794Z,100757.32
2019-04-01T15:46:24.142Z,100746.94
2019-04-01T15:48:55.577Z,100760.09
2019-04-01T15:51:26.922Z,100765.31
2019-04-01T15:54:01.269Z,100762.09
2019-04-01T15:56:31.702Z,100772.92
2019-04-01T15:59:03.137Z,100785.09
2019-04-01T16:01:41.594Z,100782.20
2019-04-01T16:04:18.194Z,100788.92
2019-04-01T16:06:51.696Z,100792.41
2019-04-01T16:09:26.258Z,100801.06
2019-04-01T16:11:59.448Z,100809.95
2019-04-01T16:14:31.257Z,100803.30
2019-04-01T16:17:05.214Z,100818.16
2019-04-01T16:19:37.164Z,100817.08
2019-04-01T16:22:08.586Z,100819.05
2019-04-01T16:24:40.059Z,100822.37
2019-04-01T16:27:14.841Z,100835.17
2019-04-01T16:29:47.221Z,100835.53
2019-04-01T16:32:20.663Z,100851.16
2019-04-01T16:34:52.067Z,100859.22
2019-04-01T16:37:23.473Z,100869.78
2019-04-01T16:39:55.983Z,100866.63
2019-04-01T16:42:27.424Z,100869.50
2019-04-01T16:45:00.134Z,100873.49
2019-04-01T16:47:31.505Z,100880.98
2019-04-01T16:50:03.038Z,100886.35
2019-04-01T16:52:35.523Z,100887.83
2019-04-01T16:55:07.284Z,100903.20
2019-04-01T16:57:38.611Z,100911.56
2019-04-01T17:00:10.223Z,100915.90
2019-04-01T17:02:41.397Z,100922.84
2019-04-01T17:05:13.019Z,100933.05
2019-04-01T17:07:45.699Z,100936.59
2019-04-01T17:10:21.389Z,100939.91
2019-04-01T17:12:55.802Z,100948.73
2019-04-01T17:15:27.060Z,100952.73
2019-04-01T17:17:59.131Z,100954.41
2019-04-01T17:20:32.326Z,100960.64
2019-04-01T17:23:03.669Z,100966.95
2019-04-01T17:25:34.997Z,100962.02
2019-04-01T17:28:06.451Z,100984.27
2019-04-01T17:30:37.896Z,100973.59
2019-04-01T17:33:09.363Z,100984.22
2019-04-01T17:35:41.850Z,100987.64
2019-04-01T17:38:14.011Z,100988.95
2019-04-01T17:40:45.422Z,100995.33
2019-04-01T17:43:16.820Z,100997.30
2019-04-01T17:45:49.869Z,100995.02
2019-04-01T17:48:21.246Z,101002.30
2019-04-01T17:50:52.575Z,101003.00
2019-04-01T17:53:23.911Z,101007.45
2019-04-01T17:55:57.275Z,101001.58
2019-04-01T17:58:28.635Z,101014.72
2019-04-01T18:01:00.375Z,101014.72
2019-04-01T18:03:31.819Z,101019.21
2019-04-01T18:06:03.222Z,101018.16
2019-04-01T18:08:34.612Z,101021.11
2019-04-01T18:11:06.063Z,101028.81
2019-04-01T18:13:38.072Z,101029.40
2019-04-01T18:16:10.354Z,101027.64
2019-04-01T18:18:41.687Z,101028.17
2019-04-01T18:21:13.006Z,101024.58
2019-04-01T18:23:44.259Z,101039.33
2019-04-01T18:26:15.485Z,101035.05
2019-04-01T18:28:47.008Z,101035.84
2019-04-01T18:31:18.322Z,101041.98
2019-04-01T18:33:56.001Z,101042.48
2019-04-01T18:36:23.138Z,101043.92
2019-04-01T18:38:54.656Z,101046.98
2019-04-01T18:41:25.900Z,101049.92
2019-04-01T18:43:57.644Z,101051.00
2019-04-01T18:46:28.929Z,101057.53
2019-04-01T18:49:00.272Z,101048.79
2019-04-01T18:51:31.601Z,101057.30
2019-04-01T18:54:02.946Z,101060.77
2019-04-01T18:56:34.215Z,101059.53
2019-04-01T18:59:05.504Z,101056.78
2019-04-01T19:01:36.749Z,101062.16
2019-04-01T19:04:08.057Z,101063.13
2019-04-01T19:06:40.494Z,101056.47
2019-04-01T19:09:12.296Z,101066.30
2019-04-01T19:11:48.150Z,101062.14
2019-04-01T19:14:19.471Z,101059.11
2019-04-01T19:16:51.892Z,101061.22
2019-04-01T19:19:23.187Z,101069.87
2019-04-01T19:21:54.605Z,101065.95
2019-04-01T19:24:25.969Z,101075.83
2019-04-01T19:26:57.309Z,101075.33
2019-04-01T19:29:28.616Z,101083.88
2019-04-01T19:31:59.947Z,101087.73
2019-04-01T19:34:31.267Z,101074.09
2019-04-01T19:37:04.772Z,101087.51
2019-04-01T19:39:36.974Z,101087.38
2019-04-01T19:42:08.135Z,101082.78
2019-04-01T19:44:39.474Z,101093.38
2019-04-01T19:47:11.883Z,101093.45
2019-04-01T19:49:43.204Z,101086.51
2019-04-01T19:52:14.552Z,101092.77
2019-04-01T19:54:45.908Z,101087.16
2019-04-01T19:57:19.184Z,101082.86
2019-04-01T19:59:50.521Z,101093.48
2019-04-01T20:02:21.790Z,101087.06
2019-04-01T20:04:53.106Z,101092.42
2019-04-01T20:07:25.332Z,101097.02
2019-04-01T20:09:56.629Z,101094.61
2019-04-01T20:12:31.993Z,101090.31
2019-04-01T20:15:03.457Z,101089.47
2019-04-01T20:17:34.707Z,101081.57
2019-04-01T20:20:09.166Z,101099.75
2019-04-01T20:22:41.735Z,101092.36
2019-04-01T20:25:12.962Z,101091.95
2019-04-01T20:27:44.347Z,101088.13
2019-04-01T20:30:16.111Z,101093.51
2019-04-01T20:32:48.995Z,101094.42
2019-04-01T20:35:23.684Z,101104.22
2019-04-01T20:37:54.543Z,101107.75
2019-04-01T20:40:25.877Z,101111.45
2019-04-01T20:42:57.344Z,101106.66
2019-04-01T20:45:29.717Z,101109.75
2019-04-01T20:48:00.861Z,101111.53
2019-04-01T20:50:32.160Z,101118.32
2019-04-01T20:53:03.329Z,101112.62
2019-04-01T20:55:47.421Z,101111.87
2019-04-01T20:58:07.696Z,101118.98
2019-04-01T21:00:38.999Z,101124.40
2019-04-01T21:03:12.269Z,101121.91
2019-04-01T21:05:43.687Z,101126.80
2019-04-01T21:08:16.447Z,101134.02
2019-04-01T21:10:48.205Z,101135.80
2019-04-01T21:13:19.528Z,101136.41
2019-04-01T21:15:50.827Z,101145.27
2019-04-01T21:18:22.137Z,101141.35
2019-04-01T21:20:53.730Z,101138.31
2019-04-01T21:23:25.055Z,101140.16
2019-04-01T21:25:56.421Z,101127.05
2019-04-01T21:28:27.668Z,101136.50
2019-04-01T21:30:59.511Z,101140.53
2019-04-01T21:33:30.996Z,101149.23
2019-04-01T21:36:02.279Z,101151.13
2019-04-01T21:38:33.535Z,101148.60
2019-04-01T21:41:04.921Z,101147.84
2019-04-01T21:43:36.224Z,101141.47
2019-04-01T21:46:07.608Z,101141.53
2019-04-01T21:48:39.263Z,101143.33
2019-04-01T21:51:10.956Z,101140.33
2019-04-01T21:53:42.179Z,101149.36
2019-04-01T21:56:13.405Z,101145.74
2019-04-01T21:58:45.783Z,101146.02
2019-04-01T22:01:17.317Z,101151.53
2019-04-01T22:03:48.720Z,101151.53
2019-04-01T22:06:20.037Z,101150.73
2019-04-01T22:08:52.727Z,101147.27
2019-04-01T22:11:23.972Z,101151.80
2019-04-01T22:13:56.095Z,101147.02
2019-04-01T22:16:27.774Z,101153.69
2019-04-01T22:18:59.174Z,101147.58
2019-04-01T22:21:30.398Z,101152.86
2019-04-01T22:24:01.622Z,101146.88
2019-04-01T22:26:32.959Z,101149.75
2019-04-01T22:29:04.314Z,101149.75
2019-04-01T22:31:35.524Z,101159.45
2019-04-01T22:34:09.057Z,101150.67
2019-04-01T22:36:40.548Z,101148.72
2019-04-01T22:39:11.750Z,101148.72
2019-04-01T22:41:43.972Z,101156.59
2019-04-01T22:44:15.176Z,101155.81
2019-04-01T22:46:47.524Z,101155.81
2019-04-01T22:49:19.909Z,101166.88
2019-04-01T22:51:51.097Z,101153.27
2019-04-01T22:54:22.397Z,101166.10
2019-04-01T22:56:53.632Z,101162.69
2019-04-01T22:59:24.803Z,101155.84
2019-04-01T23:01:59.363Z,101155.71
2019-04-01T23:04:29.863Z,101159.38
2019-04-01T23:07:01.127Z,101154.15
2019-04-01T23:09:34.403Z,101154.15
2019-04-01T23:12:05.611Z,101147.30
2019-04-01T23:14:36.828Z,101162.23
2019-04-01T23:17:08.005Z,101162.72
2019-04-01T23:19:39.243Z,101172.08
2019-04-01T23:22:11.826Z,101175.99
2019-04-01T23:24:43.034Z,101184.25
2019-04-01T23:27:14.238Z,101178.59
2019-04-01T23:29:46.459Z,101186.93
2019-04-01T23:32:17.671Z,101183.91
2019-04-01T23:34:49.917Z,101188.63
2019-04-01T23:37:21.056Z,101197.38
2019-04-01T23:39:52.249Z,101200.05
2019-04-01T23:42:23.446Z,101193.03
2019-04-01T23:44:54.641Z,101187.76
2019-04-01T23:47:25.759Z,101182.48
2019-04-01T23:49:56.949Z,101193.91
2019-04-01T23:52:28.143Z,101193.98
2019-04-01T23:55:00.219Z,101198.28
2019-04-01T23:57:31.555Z,101194.84
